Time;durP1;ratioP1;P1;durP2;ratioP2;P2;SDS_P1;SDS_P2;PMS_P1;PMS_P2;Temp;Humidity;BMP_temperature;BMP_pressure;BME280_temperature;BME280_humidity;BME280_pressure;Samples;Min_cycle;Max_cycle;Signal;HPM_P1;HPM_P2
2022/09/23 00:00:33;;;;;;;0.77;0.77;;;10.70;99.90;;;;;;5029897;28;20199;-69
2022/09/23 00:02:59;;;;;;;0.55;0.55;;;10.70;99.90;;;;;;5014836;28;20206;-69
2022/09/23 00:05:29;;;;;;;0.60;0.60;;;10.70;99.90;;;;;;5014512;28;20264;-68
2022/09/23 00:07:55;;;;;;;0.50;0.50;;;10.70;99.90;;;;;;5014142;28;20202;-68
2022/09/23 00:10:22;;;;;;;0.60;0.60;;;10.70;99.90;;;;;;5013192;28;20198;-68
2022/09/23 00:12:48;;;;;;;0.60;0.60;;;10.60;99.90;;;;;;5014572;28;20191;-68
2022/09/23 00:15:14;;;;;;;0.68;0.68;;;10.60;99.90;;;;;;5046465;28;20209;-68
2022/09/23 00:17:39;;;;;;;0.85;0.85;;;10.70;99.90;;;;;;5045028;28;20209;-68
2022/09/23 00:20:08;;;;;;;0.50;0.50;;;10.70;99.90;;;;;;5014535;28;20632;-68
2022/09/23 00:22:35;;;;;;;0.60;0.60;;;10.70;99.90;;;;;;5014282;28;20201;-68
2022/09/23 00:25:02;;;;;;;0.50;0.50;;;10.60;99.90;;;;;;5014449;28;20234;-68
2022/09/23 00:27:28;;;;;;;0.50;0.50;;;10.70;99.90;;;;;;5014227;28;20191;-68
2022/09/23 00:29:54;;;;;;;0.70;0.70;;;10.70;99.90;;;;;;5014403;28;20187;-68
2022/09/23 00:32:19;;;;;;;0.80;0.80;;;10.70;99.90;;;;;;5014114;28;20220;-68
2022/09/23 00:34:46;;;;;;;0.60;0.60;;;10.70;99.90;;;;;;5029596;28;20261;-69
2022/09/23 00:37:12;;;;;;;0.60;0.60;;;10.70;99.90;;;;;;5013870;28;20201;-69
2022/09/23 00:39:38;;;;;;;0.63;0.63;;;10.60;99.90;;;;;;5013993;28;20743;-70
2022/09/23 00:42:05;;;;;;;0.50;0.50;;;10.60;99.90;;;;;;5014035;28;20203;-70
2022/09/23 00:44:47;;;;;;;0.60;0.60;;;10.70;99.90;;;;;;5013839;28;20772;-69
2022/09/23 00:47:19;;;;;;;1.27;0.82;;;10.60;99.90;;;;;;5045882;28;20543;-70
2022/09/23 00:49:47;;;;;;;0.60;0.60;;;10.70;99.90;;;;;;4998364;28;20278;-69
2022/09/23 00:52:17;;;;;;;0.60;0.60;;;10.70;99.90;;;;;;4994309;28;20659;-69
2022/09/23 00:54:45;;;;;;;0.60;0.60;;;10.60;99.90;;;;;;5025520;28;20286;-69
2022/09/23 00:57:15;;;;;;;0.55;0.55;;;10.60;99.90;;;;;;4994182;28;20195;-69
2022/09/23 00:59:42;;;;;;;0.50;0.50;;;10.60;99.90;;;;;;4994087;28;20200;-68
2022/09/23 01:02:09;;;;;;;0.50;0.50;;;10.60;99.90;;;;;;4994300;28;20690;-67
2022/09/23 01:04:36;;;;;;;1.50;1.25;;;10.60;99.90;;;;;;4992719;28;20598;-66
2022/09/23 01:07:01;;;;;;;0.50;0.50;;;10.60;99.90;;;;;;5025737;28;20192;-66
2022/09/23 01:09:27;;;;;;;0.50;0.50;;;10.60;99.90;;;;;;4994077;28;20283;-66
2022/09/23 01:12:36;;;;;;;0.55;0.55;;;10.60;99.90;;;;;;5025607;28;20233;-66
2022/09/23 01:15:09;;;;;;;3.13;1.90;;;10.60;99.90;;;;;;5022367;28;20796;-66
2022/09/23 01:17:43;;;;;;;0.60;0.60;;;10.60;99.90;;;;;;5014347;28;20214;-66
2022/09/23 01:20:53;;;;;;;0.65;0.60;;;10.60;99.90;;;;;;5030713;28;20203;-66
2022/09/23 01:23:40;;;;;;;0.77;0.77;;;10.60;99.90;;;;;;5005802;28;20230;-66
2022/09/23 01:26:39;;;;;;;0.60;0.60;;;10.60;99.90;;;;;;5030976;28;20249;-67
2022/09/23 01:29:35;;;;;;;0.60;0.60;;;10.60;99.90;;;;;;5031380;28;20218;-68
2022/09/23 01:32:19;;;;;;;0.50;0.50;;;10.60;99.90;;;;;;5031308;28;20685;-67
2022/09/23 01:34:57;;;;;;;0.50;0.50;;;10.60;99.90;;;;;;5014828;28;20705;-67
2022/09/23 01:37:34;;;;;;;0.50;0.50;;;10.60;99.90;;;;;;5030528;28;20722;-66
2022/09/23 01:40:09;;;;;;;0.52;0.52;;;10.60;99.90;;;;;;5030802;28;20216;-66
2022/09/23 01:42:50;;;;;;;0.60;0.60;;;10.60;99.90;;;;;;5030519;28;20224;-66
2022/09/23 01:45:24;;;;;;;0.70;0.70;;;10.70;99.90;;;;;;5030380;28;20304;-65
2022/09/23 01:48:09;;;;;;;0.60;0.60;;;10.70;99.90;;;;;;5030562;28;20727;-66
2022/09/23 01:50:56;;;;;;;0.68;0.68;;;10.70;99.90;;;;;;5012955;28;20198;-65
2022/09/23 01:53:43;;;;;;;0.50;0.50;;;10.80;99.90;;;;;;5012981;28;20187;-66
2022/09/23 01:56:35;;;;;;;0.70;0.70;;;10.90;99.90;;;;;;5013073;28;20199;-66
2022/09/23 01:59:25;;;;;;;0.60;0.60;;;10.90;99.90;;;;;;5010018;28;20210;-67
2022/09/23 02:02:14;;;;;;;0.50;0.50;;;10.90;99.90;;;;;;5010850;28;20293;-66
2022/09/23 02:05:13;;;;;;;0.60;0.60;;;10.90;99.90;;;;;;5012574;28;20220;-66
2022/09/23 02:07:49;;;;;;;0.50;0.50;;;10.90;99.90;;;;;;5037023;28;20218;-66
2022/09/23 02:10:44;;;;;;;0.50;0.50;;;10.90;99.90;;;;;;5012617;28;20186;-66
2022/09/23 02:13:27;;;;;;;0.50;0.50;;;10.90;99.90;;;;;;5011659;28;20199;-66
2022/09/23 02:16:00;;;;;;;0.50;0.50;;;10.90;99.90;;;;;;5012828;28;20201;-66
2022/09/23 02:18:30;;;;;;;0.60;0.60;;;11.00;99.90;;;;;;5012678;28;20195;-66
2022/09/23 02:21:05;;;;;;;0.60;0.60;;;11.10;99.90;;;;;;5012756;28;20724;-66
2022/09/23 02:23:40;;;;;;;0.60;0.60;;;11.10;99.90;;;;;;5012308;28;20222;-67
2022/09/23 02:26:50;;;;;;;0.57;0.57;;;11.10;99.90;;;;;;5012691;28;20256;-66
2022/09/23 02:29:31;;;;;;;0.80;0.80;;;11.10;99.90;;;;;;5002528;28;20206;-66
2022/09/23 02:32:18;;;;;;;1.00;0.90;;;11.10;99.90;;;;;;5016647;28;20661;-65
2022/09/23 02:34:44;;;;;;;0.50;0.50;;;11.10;99.90;;;;;;5016317;28;20210;-66
2022/09/23 02:37:47;;;;;;;0.50;0.50;;;11.10;99.90;;;;;;5016296;28;20268;-66
2022/09/23 02:40:37;;;;;;;0.73;0.73;;;11.10;99.90;;;;;;5016416;28;20237;-66
2022/09/23 02:43:35;;;;;;;0.50;0.50;;;11.10;99.90;;;;;;4996790;28;20223;-66
2022/09/23 02:46:05;;;;;;;0.80;0.80;;;11.10;99.90;;;;;;5010889;28;20222;-66
2022/09/23 02:48:40;;;;;;;0.50;0.50;;;11.10;99.90;;;;;;5031391;28;20199;-66
2022/09/23 02:51:06;;;;;;;0.50;0.50;;;11.10;99.90;;;;;;5016242;28;20225;-66
2022/09/23 02:53:33;;;;;;;14.48;0.77;;;11.00;99.90;;;;;;5016054;28;20203;-66
2022/09/23 02:56:16;;;;;;;0.55;0.55;;;11.00;99.90;;;;;;5016142;28;20278;-66
2022/09/23 02:58:42;;;;;;;0.50;0.50;;;11.00;99.90;;;;;;5016072;28;20199;-66
2022/09/23 03:01:10;;;;;;;0.55;0.55;;;10.90;99.90;;;;;;5022638;28;20199;-66
2022/09/23 03:04:05;;;;;;;0.60;0.60;;;11.00;99.90;;;;;;5037160;28;20214;-66
2022/09/23 03:06:36;;;;;;;0.70;0.70;;;10.90;99.90;;;;;;5012823;28;20210;-66
2022/09/23 03:09:09;;;;;;;0.60;0.60;;;11.00;99.90;;;;;;4996399;28;20671;-66
2022/09/23 03:11:38;;;;;;;0.70;0.70;;;11.00;99.90;;;;;;5027806;28;20203;-66
2022/09/23 03:14:41;;;;;;;0.50;0.50;;;11.00;99.90;;;;;;5011145;28;20235;-66
2022/09/23 03:17:14;;;;;;;0.55;0.55;;;11.00;99.90;;;;;;4995326;28;20214;-66
2022/09/23 03:19:45;;;;;;;1.00;1.00;;;11.00;99.90;;;;;;4995958;28;20194;-66
2022/09/23 03:22:24;;;;;;;0.65;0.65;;;11.00;99.90;;;;;;4996250;28;20590;-66
2022/09/23 03:24:51;;;;;;;0.57;0.57;;;11.10;99.90;;;;;;4995860;28;20230;-66
2022/09/23 03:27:22;;;;;;;0.50;0.50;;;11.10;99.90;;;;;;4995942;28;20311;-66
2022/09/23 03:29:50;;;;;;;0.80;0.63;;;11.20;99.90;;;;;;5005073;28;20237;-66
2022/09/23 03:32:18;;;;;;;0.80;0.80;;;11.20;99.90;;;;;;5015522;28;20542;-66
2022/09/23 03:34:49;;;;;;;0.60;0.60;;;11.20;99.90;;;;;;5015421;28;20199;-66
2022/09/23 03:37:34;;;;;;;0.50;0.50;;;11.20;99.90;;;;;;5015306;28;20191;-66
2022/09/23 03:40:15;;;;;;;0.60;0.60;;;11.20;99.90;;;;;;5015354;28;20195;-66
2022/09/23 03:42:41;;;;;;;0.60;0.60;;;11.20;99.90;;;;;;5014080;28;20201;-66
2022/09/23 03:45:15;;;;;;;0.50;0.50;;;11.20;99.90;;;;;;5003038;28;20196;-66
2022/09/23 03:47:41;;;;;;;0.45;0.45;;;11.20;99.90;;;;;;4995437;28;20193;-66
2022/09/23 03:50:07;;;;;;;0.50;0.50;;;11.20;99.90;;;;;;4995463;28;20627;-66
2022/09/23 03:52:33;;;;;;;0.50;0.50;;;11.20;99.90;;;;;;4995335;28;20196;-66
2022/09/23 03:54:59;;;;;;;0.50;0.50;;;11.20;99.90;;;;;;4995465;28;20249;-66
2022/09/23 03:57:24;;;;;;;0.50;0.50;;;11.20;99.90;;;;;;5026399;28;20575;-66
2022/09/23 03:59:50;;;;;;;0.50;0.50;;;11.20;99.90;;;;;;5014971;28;20199;-66
2022/09/23 04:02:17;;;;;;;0.50;0.50;;;11.20;99.90;;;;;;5014847;28;20206;-66
2022/09/23 04:04:43;;;;;;;1.20;0.93;;;11.20;99.90;;;;;;5014553;28;20673;-66
2022/09/23 04:07:10;;;;;;;0.70;0.70;;;11.30;99.90;;;;;;5014745;28;20216;-66
2022/09/23 04:09:36;;;;;;;0.50;0.50;;;11.30;99.90;;;;;;5013731;28;20651;-65
2022/09/23 04:12:03;;;;;;;0.55;0.55;;;11.30;99.90;;;;;;5014845;28;20224;-66
2022/09/23 04:14:29;;;;;;;0.50;0.50;;;11.30;99.90;;;;;;5014620;28;20654;-66
2022/09/23 04:16:55;;;;;;;0.60;0.60;;;11.30;99.90;;;;;;5014642;28;20210;-67
2022/09/23 04:19:21;;;;;;;0.50;0.50;;;11.30;99.90;;;;;;5014406;28;20190;-68
2022/09/23 04:21:47;;;;;;;0.70;0.70;;;11.30;99.90;;;;;;5029597;28;20574;-66
2022/09/23 04:24:14;;;;;;;0.55;0.55;;;11.30;99.90;;;;;;5014386;28;20646;-66
2022/09/23 04:26:40;;;;;;;0.60;0.60;;;11.30;99.90;;;;;;5029363;28;20222;-66
2022/09/23 04:29:06;;;;;;;0.55;0.55;;;11.30;99.90;;;;;;5029585;28;20275;-66
2022/09/23 04:31:33;;;;;;;0.60;0.60;;;11.20;99.90;;;;;;5014321;28;20190;-66
2022/09/23 04:33:59;;;;;;;4.30;1.13;;;11.20;99.90;;;;;;5014212;28;20673;-66
2022/09/23 04:36:25;;;;;;;0.50;0.50;;;11.20;99.90;;;;;;5012778;28;20229;-67
2022/09/23 04:38:51;;;;;;;0.45;0.45;;;11.20;99.90;;;;;;5014314;28;20285;-67
2022/09/23 04:41:17;;;;;;;0.40;0.40;;;11.20;99.90;;;;;;5029482;28;20206;-67
2022/09/23 04:43:44;;;;;;;0.65;0.65;;;11.20;99.90;;;;;;5013285;28;20209;-66
2022/09/23 04:46:13;;;;;;;0.50;0.50;;;11.10;99.90;;;;;;4994367;28;20725;-66
2022/09/23 04:48:40;;;;;;;0.50;0.50;;;11.20;99.90;;;;;;4994194;28;20219;-67
2022/09/23 04:51:11;;;;;;;0.65;0.65;;;11.20;99.90;;;;;;5009451;28;20202;-67
2022/09/23 04:53:38;;;;;;;0.60;0.60;;;11.10;99.90;;;;;;4994027;28;20188;-66
2022/09/23 04:56:10;;;;;;;1.73;0.80;;;11.10;99.90;;;;;;4994318;28;20215;-66
2022/09/23 04:58:37;;;;;;;0.50;0.50;;;11.10;99.90;;;;;;4994163;28;20651;-67
2022/09/23 05:01:19;;;;;;;2.00;0.98;;;11.10;99.90;;;;;;5028231;28;20285;-67
2022/09/23 05:03:45;;;;;;;0.50;0.50;;;11.00;99.90;;;;;;5013827;28;20202;-68
2022/09/23 05:06:13;;;;;;;0.60;0.60;;;11.00;99.90;;;;;;5013673;28;20218;-66
2022/09/23 05:08:40;;;;;;;0.70;0.70;;;11.00;99.90;;;;;;5012222;28;20195;-66
2022/09/23 05:11:07;;;;;;;0.60;0.60;;;11.00;99.90;;;;;;5013713;28;20199;-67
2022/09/23 05:13:34;;;;;;;0.60;0.60;;;11.00;99.90;;;;;;5028624;28;20203;-67
2022/09/23 05:16:08;;;;;;;0.75;0.75;;;10.90;99.90;;;;;;5013574;28;20277;-67
2022/09/23 05:18:35;;;;;;;0.60;0.60;;;10.90;99.90;;;;;;5013478;28;20687;-67
2022/09/23 05:21:02;;;;;;;0.90;0.90;;;10.90;99.90;;;;;;5013434;28;20666;-68
2022/09/23 05:23:29;;;;;;;1.25;0.95;;;10.90;99.90;;;;;;5028224;28;20331;-68
2022/09/23 05:25:59;;;;;;;0.70;0.70;;;10.90;99.90;;;;;;5013332;28;20210;-67
2022/09/23 05:28:30;;;;;;;0.50;0.50;;;10.90;99.90;;;;;;5013102;28;20582;-67
2022/09/23 05:31:05;;;;;;;0.50;0.50;;;10.90;99.90;;;;;;4998637;28;20239;-66
2022/09/23 05:33:32;;;;;;;0.50;0.50;;;10.90;99.90;;;;;;4993587;28;20191;-67
2022/09/23 05:35:57;;;;;;;0.50;0.50;;;10.90;99.90;;;;;;5025145;28;20203;-67
2022/09/23 05:38:24;;;;;;;0.65;0.65;;;10.90;99.90;;;;;;4993535;28;20569;-67
2022/09/23 05:41:03;;;;;;;0.50;0.50;;;10.90;99.90;;;;;;4993562;28;20249;-66
2022/09/23 05:43:30;;;;;;;0.43;0.43;;;10.90;99.90;;;;;;4993410;28;20562;-67
2022/09/23 05:46:02;;;;;;;0.50;0.50;;;11.00;99.90;;;;;;5007364;28;20265;-66
2022/09/23 05:48:33;;;;;;;0.65;0.65;;;10.90;99.90;;;;;;4992054;28;20739;-66
2022/09/23 05:50:59;;;;;;;0.70;0.70;;;11.00;99.90;;;;;;4993448;28;20647;-66
2022/09/23 05:53:25;;;;;;;0.50;0.50;;;11.00;99.90;;;;;;4993311;28;20203;-67
2022/09/23 05:55:53;;;;;;;0.50;0.50;;;11.00;99.90;;;;;;5000651;28;20198;-66
2022/09/23 05:58:19;;;;;;;0.80;0.80;;;11.00;99.90;;;;;;5012890;28;20191;-67
2022/09/23 06:00:45;;;;;;;0.50;0.50;;;11.00;99.90;;;;;;5011617;28;20209;-66
2022/09/23 06:03:12;;;;;;;0.50;0.50;;;11.10;99.90;;;;;;5012935;28;20278;-66
2022/09/23 06:05:38;;;;;;;0.60;0.60;;;11.10;99.90;;;;;;5014887;28;20233;-67
2022/09/23 06:08:04;;;;;;;0.50;0.50;;;11.10;99.90;;;;;;5017092;28;20550;-67
2022/09/23 06:10:34;;;;;;;1.88;0.90;;;11.10;99.90;;;;;;5016917;28;20186;-66
2022/09/23 06:13:00;;;;;;;0.50;0.50;;;11.20;99.90;;;;;;5007895;28;20211;-66
2022/09/23 06:15:26;;;;;;;0.70;0.70;;;11.20;99.90;;;;;;5007469;28;20584;-67
2022/09/23 06:17:51;;;;;;;1.00;1.00;;;11.30;99.90;;;;;;5016360;28;20202;-66
2022/09/23 06:20:17;;;;;;;0.40;0.40;;;11.30;99.90;;;;;;5016860;28;20226;-66
2022/09/23 06:22:43;;;;;;;0.50;0.50;;;11.30;99.90;;;;;;5016453;28;20285;-66
2022/09/23 06:25:08;;;;;;;0.50;0.50;;;11.40;99.90;;;;;;5016593;28;20206;-66
2022/09/23 06:27:34;;;;;;;0.47;0.47;;;11.40;99.90;;;;;;5015408;28;20203;-67
2022/09/23 06:29:59;;;;;;;0.50;0.50;;;11.40;99.90;;;;;;5016617;28;20191;-66
2022/09/23 06:32:25;;;;;;;0.70;0.70;;;11.40;99.90;;;;;;5016334;28;20329;-66
2022/09/23 06:34:51;;;;;;;0.80;0.70;;;11.50;99.90;;;;;;5016553;28;20187;-66
2022/09/23 06:37:16;;;;;;;0.60;0.60;;;11.50;99.90;;;;;;5016401;28;20206;-66
2022/09/23 06:39:42;;;;;;;0.50;0.50;;;11.60;99.90;;;;;;5016709;28;20210;-66
2022/09/23 06:42:08;;;;;;;3.10;1.05;;;11.60;99.90;;;;;;5015574;28;20608;-66
2022/09/23 06:44:33;;;;;;;0.50;0.50;;;11.70;99.90;;;;;;5008703;28;20196;-66
2022/09/23 06:46:59;;;;;;;0.60;0.60;;;11.70;99.90;;;;;;4996777;28;20218;-66
2022/09/23 06:49:25;;;;;;;0.50;0.50;;;11.70;99.90;;;;;;4996546;28;20199;-66
2022/09/23 06:51:51;;;;;;;0.50;0.50;;;11.70;99.90;;;;;;5000803;28;20245;-66
2022/09/23 06:54:16;;;;;;;0.50;0.50;;;11.70;99.90;;;;;;5016250;28;20187;-66
2022/09/23 06:56:46;;;;;;;0.60;0.60;;;11.80;99.90;;;;;;5016057;28;20194;-66
2022/09/23 06:59:15;;;;;;;0.50;0.50;;;11.80;99.90;;;;;;5016043;28;20187;-66
2022/09/23 07:01:41;;;;;;;0.50;0.50;;;11.80;99.90;;;;;;5015891;28;20622;-66
2022/09/23 07:04:09;;;;;;;0.60;0.60;;;11.80;99.90;;;;;;5031282;28;20195;-66
2022/09/23 07:06:35;;;;;;;0.50;0.50;;;11.80;99.90;;;;;;5014934;28;20324;-66
2022/09/23 07:09:00;;;;;;;0.50;0.50;;;11.80;99.90;;;;;;5015959;28;20599;-66
2022/09/23 07:11:26;;;;;;;1.25;1.13;;;11.80;99.90;;;;;;5015573;28;20225;-66
2022/09/23 07:13:52;;;;;;;0.50;0.50;;;11.80;99.90;;;;;;5046277;28;20685;-66
2022/09/23 07:16:18;;;;;;;0.70;0.70;;;11.80;99.90;;;;;;5005308;28;20207;-67
2022/09/23 07:18:44;;;;;;;0.55;0.55;;;11.90;99.90;;;;;;4996145;28;20253;-66
2022/09/23 07:21:13;;;;;;;0.68;0.68;;;11.90;99.90;;;;;;4995922;28;20195;-67
2022/09/23 07:23:44;;;;;;;0.60;0.60;;;11.90;99.90;;;;;;4995769;28;20243;-66
2022/09/23 07:26:11;;;;;;;0.55;0.55;;;12.00;99.90;;;;;;4995839;28;20211;-66
2022/09/23 07:28:37;;;;;;;0.70;0.63;;;12.00;99.90;;;;;;5010809;28;20230;-67
2022/09/23 07:31:11;;;;;;;0.57;0.57;;;12.10;99.90;;;;;;5002167;28;20203;-66
2022/09/23 07:33:38;;;;;;;0.60;0.60;;;12.20;99.90;;;;;;5015708;28;20658;-68
2022/09/23 07:36:06;;;;;;;0.95;0.80;;;12.20;99.90;;;;;;5015288;28;20732;-67
2022/09/23 07:38:32;;;;;;;1.05;0.73;;;12.30;99.90;;;;;;5015244;28;20195;-67
2022/09/23 07:41:06;;;;;;;1.85;0.80;;;12.50;99.90;;;;;;5015371;28;20202;-68
2022/09/23 07:43:33;;;;;;;0.43;0.43;;;12.50;99.90;;;;;;5015479;28;20272;-66
2022/09/23 07:46:01;;;;;;;0.77;0.70;;;12.60;99.90;;;;;;4996402;28;20671;-66
2022/09/23 07:48:28;;;;;;;0.40;0.40;;;12.70;99.90;;;;;;5034227;28;20191;-69
2022/09/23 07:50:55;;;;;;;2.20;0.95;;;12.80;99.90;;;;;;5015211;28;20186;-66
2022/09/23 07:53:21;;;;;;;0.73;0.70;;;12.80;99.90;;;;;;5015087;28;20195;-67
2022/09/23 07:55:56;;;;;;;0.40;0.40;;;12.80;99.90;;;;;;5014365;28;20203;-67
2022/09/23 07:58:22;;;;;;;0.50;0.50;;;12.90;99.90;;;;;;5015179;28;20650;-67
2022/09/23 08:00:51;;;;;;;2.00;0.82;;;13.00;99.90;;;;;;5014964;28;20198;-67
2022/09/23 08:03:16;;;;;;;2.83;1.55;;;13.00;99.90;;;;;;5015120;28;20187;-68
2022/09/23 08:05:42;;;;;;;0.50;0.50;;;13.10;99.90;;;;;;5014861;28;20206;-67
2022/09/23 08:08:08;;;;;;;0.50;0.50;;;13.10;99.90;;;;;;5014878;28;20198;-67
2022/09/23 08:10:34;;;;;;;0.50;0.50;;;13.20;99.90;;;;;;5046410;28;20693;-67
2022/09/23 08:13:02;;;;;;;0.55;0.55;;;13.20;99.90;;;;;;5014782;28;20195;-67
2022/09/23 08:15:29;;;;;;;1.30;1.20;;;13.20;99.90;;;;;;5014422;28;20187;-70
2022/09/23 08:17:58;;;;;;;0.90;0.90;;;13.20;99.90;;;;;;5014142;28;20187;-66
2022/09/23 08:23:19;;;;;;;0.60;0.60;;;13.10;99.90;;;;;;4981624;28;20231;-67
2022/09/23 08:25:46;;;;;;;0.55;0.55;;;13.10;99.90;;;;;;4995176;28;20238;-67
2022/09/23 08:28:17;;;;;;;0.50;0.50;;;13.10;99.90;;;;;;4994415;28;20278;-67
2022/09/23 08:30:48;;;;;;;0.60;0.60;;;13.10;99.90;;;;;;4993483;28;20593;-66
2022/09/23 08:33:14;;;;;;;0.63;0.60;;;13.10;99.90;;;;;;4994779;28;20278;-66
2022/09/23 08:35:40;;;;;;;0.50;0.50;;;13.20;99.90;;;;;;4993184;28;20216;-66
2022/09/23 08:38:07;;;;;;;0.50;0.50;;;13.20;99.90;;;;;;4994645;28;20199;-67
2022/09/23 08:40:39;;;;;;;0.40;0.40;;;13.20;99.90;;;;;;4994420;28;20564;-67
2022/09/23 08:43:25;;;;;;;0.40;0.40;;;13.30;99.90;;;;;;4994479;28;20196;-67
2022/09/23 08:45:54;;;;;;;0.47;0.47;;;13.20;99.90;;;;;;5010649;28;20207;-67
2022/09/23 08:48:33;;;;;;;0.47;0.47;;;13.30;99.90;;;;;;5013941;28;20199;-67
2022/09/23 08:51:11;;;;;;;0.50;0.50;;;13.30;99.90;;;;;;5013903;28;20221;-66
2022/09/23 08:53:37;;;;;;;0.82;0.52;;;13.30;99.90;;;;;;5028887;28;20248;-67
2022/09/23 08:56:22;;;;;;;0.60;0.60;;;13.30;99.90;;;;;;5013855;28;20194;-68
2022/09/23 08:59:16;;;;;;;0.70;0.70;;;13.30;99.90;;;;;;5011887;28;20230;-67
2022/09/23 09:01:54;;;;;;;0.40;0.40;;;13.30;99.90;;;;;;5013518;28;20269;-67
2022/09/23 09:04:32;;;;;;;0.45;0.45;;;13.30;99.90;;;;;;5013596;28;20218;-67
2022/09/23 09:07:08;;;;;;;0.40;0.40;;;13.40;99.90;;;;;;5013498;28;20210;-66
2022/09/23 09:09:44;;;;;;;0.40;0.40;;;13.40;99.90;;;;;;5013410;28;20270;-67
2022/09/23 09:12:12;;;;;;;0.50;0.50;;;13.50;99.90;;;;;;5012385;28;20206;-66
2022/09/23 09:14:56;;;;;;;0.52;0.52;;;13.50;99.90;;;;;;5013231;28;20187;-66
2022/09/23 09:17:37;;;;;;;0.50;0.50;;;13.60;99.90;;;;;;5028526;28;20206;-68
2022/09/23 09:20:26;;;;;;;1.23;1.15;;;13.80;99.90;;;;;;5013591;28;20278;-68
2022/09/23 09:22:58;;;;;;;0.45;0.45;;;13.80;99.90;;;;;;4993855;28;20199;-67
2022/09/23 09:25:42;;;;;;;0.88;0.45;;;13.90;99.90;;;;;;4993638;28;20208;-67
2022/09/23 09:28:35;;;;;;;0.45;0.45;;;14.00;99.90;;;;;;4993815;28;20558;-67
2022/09/23 09:31:10;;;;;;;0.93;0.85;;;14.10;99.90;;;;;;4993901;28;20563;-67
2022/09/23 09:33:43;;;;;;;0.40;0.40;;;14.20;99.90;;;;;;4993636;28;20202;-66
2022/09/23 09:36:22;;;;;;;0.70;0.70;;;14.40;99.90;;;;;;4993504;28;20195;-67
2022/09/23 09:38:50;;;;;;;0.47;0.47;;;14.50;99.90;;;;;;4993427;28;20191;-66
2022/09/23 09:41:20;;;;;;;0.50;0.50;;;14.60;99.90;;;;;;5003662;28;20241;-66
2022/09/23 09:43:55;;;;;;;3.20;0.85;;;14.80;99.90;;;;;;5011936;28;20202;-67
2022/09/23 09:46:33;;;;;;;0.50;0.50;;;15.00;99.90;;;;;;4991924;28;20214;-67
2022/09/23 09:49:23;;;;;;;1.33;0.88;;;15.10;99.90;;;;;;4993467;28;20206;-66
2022/09/23 09:52:10;;;;;;;0.40;0.40;;;15.20;99.90;;;;;;4993338;28;20286;-66
2022/09/23 09:54:37;;;;;;;0.32;0.32;;;15.20;99.90;;;;;;4993108;28;20247;-67
2022/09/23 09:57:08;;;;;;;0.40;0.40;;;15.10;99.90;;;;;;4993402;28;20199;-67
2022/09/23 09:59:34;;;;;;;0.40;0.40;;;15.20;99.90;;;;;;4993214;28;20278;-67
2022/09/23 10:02:34;;;;;;;0.35;0.35;;;15.20;99.90;;;;;;5024689;28;20286;-67
2022/09/23 10:05:04;;;;;;;0.60;0.60;;;15.30;99.90;;;;;;4993227;28;20191;-67
2022/09/23 10:07:32;;;;;;;0.40;0.40;;;15.30;99.90;;;;;;4992938;28;20242;-67
2022/09/23 10:10:16;;;;;;;0.40;0.40;;;15.50;99.90;;;;;;4991925;28;20298;-67
2022/09/23 10:12:46;;;;;;;0.90;0.73;;;15.60;99.90;;;;;;4993059;28;20703;-66
2022/09/23 10:15:40;;;;;;;0.43;0.43;;;15.70;99.90;;;;;;4993287;28;20242;-67
2022/09/23 10:18:18;;;;;;;0.40;0.40;;;15.70;99.90;;;;;;4993325;28;20200;-67
2022/09/23 10:20:45;;;;;;;0.40;0.40;;;15.70;99.90;;;;;;4993136;28;20202;-66
2022/09/23 10:23:20;;;;;;;0.40;0.40;;;15.60;99.90;;;;;;4993312;28;20237;-66
2022/09/23 10:25:56;;;;;;;0.40;0.40;;;15.50;99.90;;;;;;4993233;28;20246;-65
2022/09/23 10:28:58;;;;;;;1.02;0.90;;;15.40;99.90;;;;;;4992977;28;20674;-66
2022/09/23 10:31:27;;;;;;;0.60;0.60;;;15.40;99.90;;;;;;5017824;28;20655;-67
2022/09/23 10:33:59;;;;;;;0.40;0.40;;;15.40;99.90;;;;;;4993198;28;20282;-66
2022/09/23 10:36:26;;;;;;;0.47;0.47;;;15.40;99.90;;;;;;4994404;28;20678;-66
2022/09/23 10:46:37;;;;;;;1.90;1.60;;;15.50;99.90;;;;;;5012847;28;20202;-66
2022/09/23 10:48:26;;;;;;;1.85;1.05;;;15.80;99.90;;;;;;5012062;28;20206;-66
2022/09/23 10:50:54;;;;;;;0.40;0.40;;;16.00;99.90;;;;;;5013639;28;20737;-66
2022/09/23 10:53:31;;;;;;;0.40;0.40;;;16.30;99.90;;;;;;5016213;28;20206;-66
2022/09/23 10:56:09;;;;;;;0.30;0.30;;;16.70;99.90;;;;;;5016235;28;20201;-67
2022/09/23 10:59:03;;;;;;;0.52;0.52;;;17.30;99.90;;;;;;5015546;28;20203;-66
2022/09/23 11:02:00;;;;;;;0.57;0.57;;;17.70;99.90;;;;;;4996365;28;20207;-67
2022/09/23 11:04:45;;;;;;;5.03;0.88;;;17.70;99.90;;;;;;4996668;28;20678;-67
2022/09/23 11:07:44;;;;;;;0.47;0.45;;;18.00;99.90;;;;;;4996164;28;20207;-67
2022/09/23 11:10:23;;;;;;;0.32;0.32;;;18.10;99.90;;;;;;4996276;28;20199;-66
2022/09/23 11:13:10;;;;;;;0.40;0.40;;;18.50;99.90;;;;;;4996187;28;20271;-66
2022/09/23 11:15:57;;;;;;;0.30;0.30;;;18.80;99.90;;;;;;4995907;28;20201;-66
2022/09/23 11:18:34;;;;;;;0.30;0.30;;;18.80;99.90;;;;;;4995869;28;20195;-67
2022/09/23 11:21:19;;;;;;;0.30;0.30;;;18.20;99.90;;;;;;4995918;28;20580;-67
2022/09/23 11:24:03;;;;;;;0.85;0.80;;;18.00;99.90;;;;;;4995866;28;20362;-67
2022/09/23 11:26:40;;;;;;;0.68;0.63;;;17.80;99.90;;;;;;5011825;28;20766;-67
2022/09/23 11:29:15;;;;;;;0.50;0.43;;;17.40;99.90;;;;;;5035269;28;20731;-65
2022/09/23 11:31:58;;;;;;;0.32;0.32;;;17.30;99.90;;;;;;5067096;28;20193;-66
2022/09/23 11:34:40;;;;;;;0.50;0.50;;;17.00;99.90;;;;;;5049364;28;20190;-66
2022/09/23 11:37:18;;;;;;;1.05;0.85;;;16.80;99.90;;;;;;5014517;28;20572;-66
2022/09/23 11:40:05;;;;;;;0.60;0.60;;;16.60;99.90;;;;;;5015247;28;20201;-66
2022/09/23 11:42:57;;;;;;;0.40;0.40;;;16.30;99.90;;;;;;5015186;28;20658;-66
2022/09/23 11:45:36;;;;;;;0.77;0.55;;;16.30;99.90;;;;;;4990542;28;20215;-65
2022/09/23 11:48:08;;;;;;;0.43;0.43;;;16.50;99.90;;;;;;4995607;28;20726;-65
2022/09/23 11:50:39;;;;;;;0.60;0.60;;;16.60;99.90;;;;;;4995396;28;20223;-65
2022/09/23 11:53:35;;;;;;;0.50;0.50;;;16.70;99.90;;;;;;4995554;28;20581;-66
2022/09/23 11:56:39;;;;;;;0.40;0.40;;;16.60;99.90;;;;;;4996612;28;20219;-65
2022/09/23 11:59:20;;;;;;;0.30;0.30;;;16.50;99.90;;;;;;4973798;28;20204;-65
2022/09/23 12:01:52;;;;;;;0.40;0.40;;;16.70;99.90;;;;;;4973587;28;20211;-65
2022/09/23 12:04:41;;;;;;;0.38;0.38;;;16.60;99.90;;;;;;4972987;28;20231;-66
2022/09/23 12:07:07;;;;;;;0.32;0.32;;;16.70;99.90;;;;;;4957266;28;20259;-66
2022/09/23 12:10:00;;;;;;;0.45;0.35;;;16.50;99.90;;;;;;4973575;28;20201;-66
2022/09/23 12:12:58;;;;;;;0.40;0.40;;;16.50;99.90;;;;;;4973387;28;20335;-66
2022/09/23 12:15:36;;;;;;;2.70;0.68;;;16.50;99.90;;;;;;4973483;28;20219;-66
2022/09/23 12:18:10;;;;;;;0.40;0.40;;;16.40;99.90;;;;;;4973661;28;20575;-66
2022/09/23 12:21:33;;;;;;;0.68;0.68;;;16.40;99.90;;;;;;4973358;28;20207;-66
2022/09/23 12:24:23;;;;;;;0.88;0.63;;;16.30;99.90;;;;;;4973330;28;20334;-66
2022/09/23 12:26:56;;;;;;;0.30;0.30;;;16.20;99.90;;;;;;4973245;28;20216;-65
2022/09/23 12:29:24;;;;;;;0.40;0.40;;;16.20;99.90;;;;;;4972890;28;20208;-66
2022/09/23 12:31:50;;;;;;;0.50;0.50;;;16.10;99.90;;;;;;4974227;28;20692;-65
2022/09/23 12:34:28;;;;;;;0.38;0.38;;;16.10;99.90;;;;;;5046287;28;20225;-66
2022/09/23 12:37:04;;;;;;;0.30;0.30;;;16.30;99.90;;;;;;5014354;28;20627;-65
2022/09/23 12:39:34;;;;;;;0.30;0.30;;;16.40;99.90;;;;;;5014184;28;20217;-66
2022/09/23 12:42:03;;;;;;;0.30;0.30;;;16.20;99.90;;;;;;5014462;28;20253;-66
2022/09/23 12:44:40;;;;;;;0.35;0.35;;;16.10;99.90;;;;;;5007179;28;20679;-66
2022/09/23 12:47:29;;;;;;;0.63;0.55;;;16.20;99.90;;;;;;4994581;28;20206;-66
2022/09/23 12:49:56;;;;;;;0.50;0.50;;;16.20;99.90;;;;;;4994116;28;20215;-66
2022/09/23 12:52:26;;;;;;;0.40;0.40;;;16.00;99.90;;;;;;5003751;28;20728;-66
2022/09/23 12:54:57;;;;;;;0.40;0.40;;;15.90;99.90;;;;;;5012731;28;20588;-66
2022/09/23 12:57:32;;;;;;;0.55;0.55;;;15.80;99.90;;;;;;5013799;28;20570;-66
2022/09/23 13:00:12;;;;;;;0.40;0.40;;;15.80;99.90;;;;;;5013738;28;20194;-66
2022/09/23 13:08:46;;;;;;;0.98;0.93;;;16.80;99.90;;;;;;5013930;28;20240;-66
2022/09/23 13:11:21;;;;;;;0.30;0.30;;;17.30;99.90;;;;;;5012345;28;20246;-66
2022/09/23 13:13:49;;;;;;;0.47;0.47;;;17.30;99.90;;;;;;5013460;28;20720;-66
2022/09/23 13:16:31;;;;;;;0.40;0.40;;;17.40;99.90;;;;;;5013583;28;20206;-66
2022/09/23 13:19:05;;;;;;;0.40;0.40;;;17.10;99.90;;;;;;5013520;28;20281;-66
2022/09/23 13:21:43;;;;;;;1.08;0.82;;;17.00;99.90;;;;;;5013362;28;20282;-66
2022/09/23 13:24:12;;;;;;;0.90;0.88;;;16.90;99.90;;;;;;5045061;28;20301;-66
2022/09/23 13:26:49;;;;;;;1.75;1.17;;;17.00;99.90;;;;;;5043388;28;20291;-66
2022/09/23 13:29:24;;;;;;;0.40;0.40;;;16.90;99.90;;;;;;5013497;28;20197;-66
2022/09/23 13:31:51;;;;;;;0.30;0.30;;;16.70;99.90;;;;;;5013398;28;20190;-66
2022/09/23 13:34:22;;;;;;;0.52;0.52;;;16.40;99.90;;;;;;5013390;28;20191;-66
2022/09/23 13:36:48;;;;;;;0.40;0.40;;;16.30;99.90;;;;;;5028331;28;20298;-66